Time;durP1;ratioP1;P1;durP2;ratioP2;P2;SDS_P1;SDS_P2;PMS_P1;PMS_P2;Temp;Humidity;BMP_temperature;BMP_pressure;BME280_temperature;BME280_humidity;BME280_pressure;Samples;Min_cycle;Max_cycle;Signal;HPM_P1;HPM_P2
2023/10/09 00:03:04;;;;;;;16.77;9.40;;;;;;;;;;5029218;28;20403;-57
2023/10/09 00:05:45;;;;;;;15.53;9.30;;;;;;;;;;5027652;28;20402;-58
2023/10/09 00:08:18;;;;;;;17.10;9.95;;;;;;;;;;5029331;28;20482;-58
2023/10/09 00:10:49;;;;;;;18.88;10.45;;;;;;;;;;5029750;28;20410;-58
2023/10/09 00:13:14;;;;;;;17.38;10.10;;;;;;;;;;5028281;28;20750;-58
2023/10/09 00:15:41;;;;;;;16.90;10.00;;;;;;;;;;5045381;28;20393;-58
2023/10/09 00:18:11;;;;;;;17.83;9.95;;;;;;;;;;5049151;28;20750;-57
2023/10/09 00:20:44;;;;;;;19.80;10.52;;;;;;;;;;5048821;28;20458;-57
2023/10/09 00:23:15;;;;;;;19.80;10.82;;;;;;;;;;5049122;28;20421;-57
2023/10/09 00:25:54;;;;;;;19.35;10.02;;;;;;;;;;5048495;28;20500;-57
2023/10/09 00:28:21;;;;;;;16.67;10.32;;;;;;;;;;5048843;28;20465;-57
2023/10/09 00:30:47;;;;;;;19.17;11.00;;;;;;;;;;5034182;28;20498;-57
2023/10/09 00:33:12;;;;;;;18.50;10.40;;;;;;;;;;5028341;28;20419;-58
2023/10/09 00:38:24;;;;;;;20.23;11.00;;;;;;;;;;5029086;28;20445;-58
2023/10/09 00:43:35;;;;;;;16.50;10.30;;;;;;;;;;5029996;28;20766;-58
2023/10/09 00:46:23;;;;;;;18.87;11.00;;;;;;;;;;5032729;28;20478;-58
2023/10/09 00:48:47;;;;;;;16.97;10.57;;;;;;;;;;5030991;28;20660;-58
2023/10/09 00:51:18;;;;;;;15.35;10.18;;;;;;;;;;5032545;28;20395;-57
2023/10/09 00:53:45;;;;;;;18.08;10.68;;;;;;;;;;5032905;28;20439;-58
2023/10/09 00:56:19;;;;;;;18.13;10.80;;;;;;;;;;5031998;28;20884;-58
2023/10/09 00:58:54;;;;;;;18.83;10.53;;;;;;;;;;5031528;28;20399;-57
2023/10/09 01:01:26;;;;;;;19.73;11.55;;;;;;;;;;5031475;28;20473;-58
2023/10/09 01:03:51;;;;;;;19.38;11.13;;;;;;;;;;5032728;28;20403;-58
2023/10/09 01:06:17;;;;;;;20.23;11.50;;;;;;;;;;5032272;28;20465;-58
2023/10/09 01:08:47;;;;;;;19.58;11.27;;;;;;;;;;5031836;28;20409;-57
2023/10/09 01:11:18;;;;;;;19.10;11.52;;;;;;;;;;5012504;28;20409;-57
2023/10/09 01:16:17;;;;;;;18.00;10.95;;;;;;;;;;5051359;28;20397;-58
2023/10/09 01:18:43;;;;;;;18.73;11.30;;;;;;;;;;5052683;28;20477;-58
2023/10/09 01:21:15;;;;;;;17.67;11.27;;;;;;;;;;5025289;28;20411;-57
2023/10/09 01:23:58;;;;;;;20.77;12.20;;;;;;;;;;5026361;28;20403;-58
2023/10/09 01:26:24;;;;;;;19.47;11.07;;;;;;;;;;5025035;28;20397;-57
2023/10/09 01:28:50;;;;;;;17.10;10.15;;;;;;;;;;5019447;28;20401;-57
2023/10/09 01:31:15;;;;;;;18.87;11.97;;;;;;;;;;5029936;28;20839;-58
2023/10/09 01:33:41;;;;;;;20.45;12.45;;;;;;;;;;5025219;28;20418;-57
2023/10/09 01:36:09;;;;;;;18.35;11.85;;;;;;;;;;5021305;28;20486;-58
2023/10/09 01:38:40;;;;;;;19.33;12.80;;;;;;;;;;5022387;28;20411;-58
2023/10/09 01:41:08;;;;;;;20.50;12.73;;;;;;;;;;5015229;28;20990;-57
2023/10/09 01:43:34;;;;;;;24.52;13.77;;;;;;;;;;5020821;28;20445;-58
2023/10/09 01:46:01;;;;;;;22.43;13.13;;;;;;;;;;5019637;28;20499;-58
2023/10/09 01:48:26;;;;;;;23.13;13.95;;;;;;;;;;5024752;28;20492;-58
2023/10/09 01:50:53;;;;;;;28.60;15.30;;;;;;;;;;5029198;28;20486;-58
2023/10/09 01:53:27;;;;;;;25.40;14.73;;;;;;;;;;5031205;28;20399;-57
2023/10/09 01:55:55;;;;;;;24.63;14.65;;;;;;;;;;5031009;28;20399;-58
2023/10/09 02:00:56;;;;;;;25.52;14.80;;;;;;;;;;5031755;28;20763;-57
2023/10/09 02:03:29;;;;;;;27.60;15.52;;;;;;;;;;5030986;28;20413;-58
2023/10/09 02:06:04;;;;;;;33.13;18.63;;;;;;;;;;5030779;28;20915;-57
2023/10/09 02:08:30;;;;;;;28.08;16.83;;;;;;;;;;5031297;28;20406;-58
2023/10/09 02:10:56;;;;;;;23.03;13.73;;;;;;;;;;5031348;28;20415;-58
2023/10/09 02:13:29;;;;;;;30.42;18.52;;;;;;;;;;5030356;28;20468;-58
2023/10/09 02:15:58;;;;;;;29.73;18.48;;;;;;;;;;5047221;28;20408;-58
2023/10/09 02:21:01;;;;;;;32.17;18.20;;;;;;;;;;5051055;28;20425;-58
2023/10/09 02:23:31;;;;;;;31.02;18.05;;;;;;;;;;5050700;28;20948;-57
2023/10/09 02:25:57;;;;;;;28.70;17.00;;;;;;;;;;5050262;28;20397;-57
2023/10/09 02:28:23;;;;;;;29.55;17.60;;;;;;;;;;5050466;28;20400;-58
2023/10/09 02:30:48;;;;;;;32.47;18.88;;;;;;;;;;5035444;28;20409;-57
2023/10/09 02:33:18;;;;;;;27.30;17.13;;;;;;;;;;5029773;28;20391;-58
2023/10/09 02:35:44;;;;;;;27.23;16.70;;;;;;;;;;5030981;28;20394;-57
2023/10/09 02:38:14;;;;;;;27.37;17.80;;;;;;;;;;5030631;28;20410;-58
2023/10/09 02:40:52;;;;;;;28.20;17.80;;;;;;;;;;5030142;28;20407;-58
2023/10/09 02:43:18;;;;;;;26.80;17.30;;;;;;;;;;5030274;28;20407;-58
2023/10/09 02:45:50;;;;;;;28.53;18.03;;;;;;;;;;5030647;28;20755;-57
2023/10/09 02:48:16;;;;;;;29.83;18.20;;;;;;;;;;5029633;28;20485;-58
2023/10/09 02:50:44;;;;;;;30.55;18.50;;;;;;;;;;5030444;28;20414;-58
2023/10/09 02:53:18;;;;;;;28.55;17.70;;;;;;;;;;5030311;28;20507;-58
2023/10/09 02:55:53;;;;;;;28.20;17.98;;;;;;;;;;5029820;28;20469;-58
2023/10/09 02:58:20;;;;;;;28.20;18.25;;;;;;;;;;5030274;28;20395;-58
2023/10/09 03:00:47;;;;;;;28.77;18.67;;;;;;;;;;5029561;28;20403;-58
2023/10/09 03:03:18;;;;;;;33.70;19.92;;;;;;;;;;5030137;28;20395;-58
2023/10/09 03:05:44;;;;;;;28.13;16.30;;;;;;;;;;5030140;28;20474;-58
2023/10/09 03:08:12;;;;;;;30.87;20.07;;;;;;;;;;5029184;28;20544;-58
2023/10/09 03:10:38;;;;;;;26.60;17.30;;;;;;;;;;5030410;28;20942;-58
2023/10/09 03:13:05;;;;;;;26.45;17.23;;;;;;;;;;5030050;28;20438;-57
2023/10/09 03:15:35;;;;;;;26.93;17.43;;;;;;;;;;5031528;28;20449;-58
2023/10/09 03:18:00;;;;;;;25.97;17.33;;;;;;;;;;5029912;28;20450;-57
2023/10/09 03:20:26;;;;;;;27.83;19.45;;;;;;;;;;5030071;28;20822;-58
2023/10/09 03:22:54;;;;;;;23.83;16.50;;;;;;;;;;5029515;28;20383;-57
2023/10/09 03:25:19;;;;;;;24.83;17.02;;;;;;;;;;5029594;28;20468;-58
2023/10/09 03:27:45;;;;;;;26.87;17.70;;;;;;;;;;5030224;28;20469;-58
2023/10/09 03:30:16;;;;;;;27.48;17.90;;;;;;;;;;5039168;28;20484;-57
2023/10/09 03:32:43;;;;;;;27.60;17.37;;;;;;;;;;5023106;28;20401;-58
2023/10/09 03:35:14;;;;;;;25.67;17.08;;;;;;;;;;5015344;28;21305;-58
2023/10/09 03:37:39;;;;;;;25.70;17.52;;;;;;;;;;5008872;28;20395;-57
2023/10/09 03:40:07;;;;;;;27.23;17.60;;;;;;;;;;5002529;28;20428;-57
2023/10/09 03:42:36;;;;;;;25.67;16.83;;;;;;;;;;4999357;28;20470;-58
2023/10/09 03:45:02;;;;;;;22.58;16.98;;;;;;;;;;4996166;28;20798;-57
2023/10/09 03:47:27;;;;;;;26.83;17.75;;;;;;;;;;4999601;28;20756;-58
2023/10/09 03:49:53;;;;;;;26.87;17.33;;;;;;;;;;5004650;28;20953;-57
2023/10/09 03:52:19;;;;;;;26.97;17.97;;;;;;;;;;5004606;28;20405;-58
2023/10/09 03:54:46;;;;;;;25.45;16.48;;;;;;;;;;5004744;28;20401;-57
2023/10/09 03:57:14;;;;;;;24.55;16.83;;;;;;;;;;5004722;28;20947;-58
2023/10/09 03:59:40;;;;;;;24.43;16.37;;;;;;;;;;5004676;28;20402;-57
2023/10/09 04:02:05;;;;;;;24.80;16.70;;;;;;;;;;5003317;28;20975;-57
2023/10/09 04:04:32;;;;;;;23.17;16.13;;;;;;;;;;4998647;28;20433;-58
2023/10/09 04:06:58;;;;;;;25.48;16.10;;;;;;;;;;5001270;28;20426;-57
2023/10/09 04:12:20;;;;;;;22.33;15.37;;;;;;;;;;5004158;28;20919;-58
2023/10/09 04:14:55;;;;;;;22.58;15.88;;;;;;;;;;5005357;28;20770;-57
2023/10/09 04:20:47;;;;;;;21.30;14.60;;;;;;;;;;5006555;28;20482;-57
2023/10/09 04:22:39;;;;;;;21.07;14.57;;;;;;;;;;5007621;28;20963;-58
2023/10/09 04:25:07;;;;;;;21.63;14.65;;;;;;;;;;5006635;28;21429;-57
2023/10/09 04:27:36;;;;;;;21.13;13.68;;;;;;;;;;5006716;28;20411;-57
2023/10/09 04:30:02;;;;;;;22.00;14.73;;;;;;;;;;4999764;28;20769;-58
2023/10/09 04:32:27;;;;;;;21.92;14.13;;;;;;;;;;5000996;28;20585;-57
2023/10/09 04:35:22;;;;;;;21.83;14.40;;;;;;;;;;5007242;28;20444;-58
2023/10/09 04:37:48;;;;;;;23.92;15.07;;;;;;;;;;5006512;28;20410;-57
2023/10/09 04:40:40;;;;;;;20.05;14.15;;;;;;;;;;5005781;28;20430;-57
2023/10/09 04:42:58;;;;;;;18.73;13.00;;;;;;;;;;5007981;28;20855;-58
2023/10/09 04:48:09;;;;;;;21.57;14.67;;;;;;;;;;5002956;28;20420;-57
2023/10/09 04:55:55;;;;;;;23.10;15.80;;;;;;;;;;5006625;28;20412;-58
2023/10/09 04:58:27;;;;;;;23.45;14.95;;;;;;;;;;5006981;28;20418;-57
2023/10/09 05:03:29;;;;;;;23.63;15.32;;;;;;;;;;5006544;28;20477;-57
2023/10/09 05:06:20;;;;;;;23.83;15.77;;;;;;;;;;5011046;28;20418;-57
2023/10/09 05:08:46;;;;;;;23.38;15.57;;;;;;;;;;5006509;28;20403;-58
2023/10/09 05:14:11;;;;;;;21.08;14.40;;;;;;;;;;5000457;28;20481;-57
2023/10/09 05:16:37;;;;;;;24.83;15.53;;;;;;;;;;4998344;28;20435;-58
2023/10/09 05:19:06;;;;;;;25.10;16.30;;;;;;;;;;5001187;28;20455;-58
2023/10/09 05:26:50;;;;;;;23.65;15.20;;;;;;;;;;5006561;28;20416;-58
2023/10/09 05:29:19;;;;;;;18.80;13.45;;;;;;;;;;5006514;28;20413;-57
2023/10/09 05:31:56;;;;;;;18.17;12.77;;;;;;;;;;5011493;28;21037;-57
2023/10/09 05:34:22;;;;;;;20.13;13.23;;;;;;;;;;5000828;28;20409;-58
2023/10/09 05:36:48;;;;;;;19.00;13.43;;;;;;;;;;5014876;28;20395;-58
2023/10/09 05:39:40;;;;;;;18.00;12.35;;;;;;;;;;5019084;28;20419;-58
2023/10/09 05:42:12;;;;;;;21.55;14.30;;;;;;;;;;5017975;28;20419;-57
2023/10/09 05:45:44;;;;;;;21.63;14.77;;;;;;;;;;5021572;28;20403;-57
2023/10/09 05:47:53;;;;;;;20.33;13.23;;;;;;;;;;5016504;28;20394;-57
2023/10/09 06:08:27;;;;;;;20.48;14.30;;;;;;;;;;5024514;28;20401;-58
2023/10/09 06:11:06;;;;;;;21.23;14.93;;;;;;;;;;5022986;28;20402;-58
2023/10/09 06:13:39;;;;;;;22.10;14.73;;;;;;;;;;5020229;28;20762;-57
2023/10/09 06:16:19;;;;;;;19.73;13.77;;;;;;;;;;5024835;28;20399;-57
2023/10/09 06:18:53;;;;;;;24.00;14.90;;;;;;;;;;5023732;28;20415;-57
2023/10/09 06:21:39;;;;;;;22.48;15.98;;;;;;;;;;5023464;28;20411;-57
2023/10/09 06:24:14;;;;;;;21.30;13.50;;;;;;;;;;5019766;28;20411;-57
2023/10/09 06:26:51;;;;;;;20.95;13.48;;;;;;;;;;5020763;28;20428;-57
2023/10/09 06:29:30;;;;;;;21.15;13.55;;;;;;;;;;5024285;28;20907;-57
2023/10/09 06:31:59;;;;;;;20.25;13.27;;;;;;;;;;5025200;28;20887;-57
2023/10/09 06:34:35;;;;;;;22.17;13.18;;;;;;;;;;5018297;28;20399;-57
2023/10/09 06:37:17;;;;;;;17.97;12.50;;;;;;;;;;5016969;28;20412;-58
2023/10/09 06:42:43;;;;;;;20.98;14.98;;;;;;;;;;5015659;28;20409;-57
2023/10/09 06:45:14;;;;;;;19.43;12.93;;;;;;;;;;5021349;28;20423;-57
2023/10/09 06:47:41;;;;;;;21.27;14.07;;;;;;;;;;5020370;28;20431;-57
2023/10/09 06:52:57;;;;;;;18.90;12.75;;;;;;;;;;5022612;28;20400;-58
2023/10/09 06:55:32;;;;;;;18.55;12.43;;;;;;;;;;5017172;28;20852;-58
2023/10/09 06:58:01;;;;;;;21.67;13.18;;;;;;;;;;5017016;28;20405;-58
2023/10/09 07:03:11;;;;;;;18.70;12.15;;;;;;;;;;5015111;28;20882;-58
2023/10/09 07:05:48;;;;;;;21.35;13.00;;;;;;;;;;5019591;28;20413;-57
2023/10/09 07:08:36;;;;;;;18.20;13.02;;;;;;;;;;5019679;28;20411;-57
2023/10/09 07:13:53;;;;;;;21.02;12.50;;;;;;;;;;5014228;28;20468;-58
2023/10/09 07:16:38;;;;;;;21.80;12.65;;;;;;;;;;5016219;28;20424;-58
2023/10/09 07:19:09;;;;;;;19.30;13.20;;;;;;;;;;5017428;28;20498;-57
2023/10/09 07:21:35;;;;;;;19.98;12.82;;;;;;;;;;5014287;28;20406;-58
2023/10/09 07:24:14;;;;;;;21.17;13.70;;;;;;;;;;5022566;28;20911;-58
2023/10/09 07:26:47;;;;;;;20.42;12.27;;;;;;;;;;5016370;28;20404;-58
2023/10/09 07:29:16;;;;;;;24.85;13.35;;;;;;;;;;5015918;28;20417;-58
2023/10/09 07:31:45;;;;;;;19.52;12.38;;;;;;;;;;5018782;28;20465;-58
2023/10/09 07:36:56;;;;;;;18.80;12.10;;;;;;;;;;5015407;28;20403;-58
2023/10/09 07:39:22;;;;;;;19.92;12.88;;;;;;;;;;5015754;28;20385;-58
2023/10/09 07:42:01;;;;;;;19.05;12.18;;;;;;;;;;5021064;28;20489;-57
2023/10/09 07:44:36;;;;;;;19.27;12.32;;;;;;;;;;5019836;28;20407;-57
2023/10/09 07:47:18;;;;;;;21.13;13.13;;;;;;;;;;5016020;28;20795;-57
2023/10/09 07:49:48;;;;;;;20.02;12.45;;;;;;;;;;5016147;28;20891;-57
2023/10/09 07:52:14;;;;;;;20.77;12.75;;;;;;;;;;5013981;28;20923;-57
2023/10/09 07:54:49;;;;;;;21.75;13.68;;;;;;;;;;5026530;28;20424;-57
2023/10/09 07:57:16;;;;;;;21.63;13.40;;;;;;;;;;5021530;28;20409;-57
2023/10/09 07:59:54;;;;;;;19.13;12.43;;;;;;;;;;5025951;28;20413;-57
2023/10/09 08:02:31;;;;;;;21.10;13.53;;;;;;;;;;5016956;28;20424;-57
2023/10/09 08:05:03;;;;;;;22.40;12.48;;;;;;;;;;5026126;28;20403;-57
2023/10/09 08:07:34;;;;;;;21.23;13.70;;;;;;;;;;5020990;28;20818;-57
2023/10/09 08:15:20;;;;;;;20.80;13.77;;;;;;;;;;5026036;28;20431;-57
2023/10/09 08:17:50;;;;;;;19.97;12.70;;;;;;;;;;5020625;28;20425;-57
2023/10/09 08:20:17;;;;;;;21.87;13.83;;;;;;;;;;5018059;28;20412;-57
2023/10/09 08:22:44;;;;;;;22.75;13.40;;;;;;;;;;5018016;28;20901;-57
2023/10/09 08:25:25;;;;;;;22.38;14.07;;;;;;;;;;5022431;28;20407;-57
2023/10/09 08:27:54;;;;;;;20.73;13.10;;;;;;;;;;5022309;28;20408;-57
2023/10/09 08:33:01;;;;;;;21.63;13.97;;;;;;;;;;5017725;28;20496;-57
2023/10/09 08:35:32;;;;;;;22.90;13.73;;;;;;;;;;5019711;28;20408;-57
2023/10/09 08:38:00;;;;;;;20.85;13.95;;;;;;;;;;5018253;28;20410;-57
2023/10/09 08:40:33;;;;;;;21.15;14.00;;;;;;;;;;5025800;28;20404;-57
2023/10/09 08:43:03;;;;;;;22.15;13.48;;;;;;;;;;5016403;28;20409;-57
2023/10/09 08:45:28;;;;;;;20.95;14.52;;;;;;;;;;5019409;28;20891;-58
2023/10/09 08:47:54;;;;;;;21.23;13.52;;;;;;;;;;5018561;28;20495;-57
2023/10/09 08:50:20;;;;;;;22.42;14.55;;;;;;;;;;5025951;28;20563;-57
2023/10/09 08:52:46;;;;;;;21.70;13.88;;;;;;;;;;5018400;28;20400;-57
2023/10/09 08:55:12;;;;;;;20.87;13.60;;;;;;;;;;5017652;28;20447;-57
2023/10/09 08:57:40;;;;;;;19.17;12.65;;;;;;;;;;5017952;28;20399;-57
2023/10/09 09:00:09;;;;;;;19.50;13.13;;;;;;;;;;5024343;28;20407;-57
2023/10/09 09:02:36;;;;;;;21.83;13.20;;;;;;;;;;5020613;28;20929;-57
2023/10/09 09:05:06;;;;;;;21.30;12.35;;;;;;;;;;5024787;28;20404;-57
2023/10/09 09:07:33;;;;;;;17.42;12.20;;;;;;;;;;5011045;28;20402;-57
2023/10/09 09:10:17;;;;;;;20.05;12.73;;;;;;;;;;5019087;28;20454;-57
2023/10/09 09:15:27;;;;;;;20.17;12.35;;;;;;;;;;5222857;22;20403;-57
2023/10/09 09:17:53;;;;;;;19.57;12.03;;;;;;;;;;5017287;28;20420;-57
2023/10/09 09:20:22;;;;;;;18.98;12.23;;;;;;;;;;5012759;28;20743;-58
2023/10/09 09:22:51;;;;;;;19.85;11.68;;;;;;;;;;5020320;28;20438;-57
2023/10/09 09:25:17;;;;;;;19.60;11.82;;;;;;;;;;5017773;28;20411;-57
2023/10/09 09:27:49;;;;;;;22.27;11.73;;;;;;;;;;5023496;28;20456;-57
2023/10/09 09:30:25;;;;;;;19.70;11.60;;;;;;;;;;5016685;28;20426;-57
2023/10/09 09:33:15;;;;;;;19.52;11.80;;;;;;;;;;5016014;28;20408;-57
2023/10/09 09:35:37;;;;;;;17.05;11.25;;;;;;;;;;5021470;28;20401;-57
2023/10/09 09:38:05;;;;;;;19.13;11.07;;;;;;;;;;5014507;28;20413;-57
2023/10/09 09:40:33;;;;;;;17.98;11.10;;;;;;;;;;5015925;28;20436;-57
2023/10/09 09:43:06;;;;;;;19.27;11.63;;;;;;;;;;5022217;28;20411;-57
2023/10/09 09:45:32;;;;;;;17.95;11.00;;;;;;;;;;5022932;28;20495;-57
2023/10/09 09:47:58;;;;;;;18.80;10.02;;;;;;;;;;5016542;28;20455;-57
2023/10/09 09:50:28;;;;;;;17.00;9.97;;;;;;;;;;5017510;28;20405;-57
2023/10/09 09:52:53;;;;;;;17.52;9.93;;;;;;;;;;5015510;28;20409;-57
2023/10/09 09:55:22;;;;;;;15.93;8.80;;;;;;;;;;5022736;28;20987;-56
2023/10/09 09:57:51;;;;;;;16.20;9.10;;;;;;;;;;5016516;28;20416;-57
2023/10/09 10:00:30;;;;;;;16.23;8.63;;;;;;;;;;5014506;28;20413;-57
2023/10/09 10:02:57;;;;;;;15.70;8.95;;;;;;;;;;5022198;28;20445;-57
2023/10/09 10:05:23;;;;;;;13.68;8.20;;;;;;;;;;5014100;28;20408;-57
2023/10/09 10:07:49;;;;;;;16.57;8.07;;;;;;;;;;5014901;28;20905;-57
2023/10/09 10:10:33;;;;;;;16.08;8.15;;;;;;;;;;5013557;28;20493;-57
2023/10/09 10:13:04;;;;;;;15.32;7.88;;;;;;;;;;5014167;28;20950;-57
2023/10/09 10:15:47;;;;;;;15.40;7.57;;;;;;;;;;5015482;28;20405;-57
2023/10/09 10:18:18;;;;;;;14.07;7.43;;;;;;;;;;5014946;28;20423;-57
2023/10/09 10:21:03;;;;;;;15.02;7.47;;;;;;;;;;5014714;28;20424;-57
2023/10/09 10:23:31;;;;;;;14.07;7.07;;;;;;;;;;5022482;28;20389;-57
2023/10/09 10:26:00;;;;;;;14.65;7.20;;;;;;;;;;5019369;28;20407;-57
2023/10/09 10:28:42;;;;;;;13.00;7.05;;;;;;;;;;5017633;28;20415;-57
2023/10/09 10:31:09;;;;;;;13.77;6.75;;;;;;;;;;5022201;28;20401;-57
2023/10/09 10:33:54;;;;;;;12.13;6.70;;;;;;;;;;5021813;28;20399;-57
2023/10/09 10:36:22;;;;;;;15.25;7.32;;;;;;;;;;5019033;28;20422;-57
2023/10/09 10:39:04;;;;;;;15.60;6.88;;;;;;;;;;5018350;28;20406;-57
2023/10/09 10:41:35;;;;;;;15.07;6.40;;;;;;;;;;5022344;28;20885;-57
2023/10/09 10:44:33;;;;;;;14.20;6.37;;;;;;;;;;5020227;28;20414;-57
2023/10/09 10:46:51;;;;;;;13.27;6.27;;;;;;;;;;5014455;28;20768;-57
2023/10/09 10:49:20;;;;;;;11.77;6.25;;;;;;;;;;5015600;28;20414;-57
2023/10/09 10:51:49;;;;;;;13.80;6.18;;;;;;;;;;5021896;28;20606;-57
2023/10/09 10:56:57;;;;;;;12.38;5.88;;;;;;;;;;5015190;28;20803;-57
2023/10/09 10:59:24;;;;;;;14.07;5.88;;;;;;;;;;5014556;28;20816;-57
2023/10/09 11:01:53;;;;;;;11.98;5.85;;;;;;;;;;5021358;28;20410;-57
2023/10/09 11:04:53;;;;;;;11.07;5.47;;;;;;;;;;5013565;28;20439;-57
2023/10/09 11:07:15;;;;;;;12.98;5.70;;;;;;;;;;5009924;28;20488;-57
2023/10/09 11:12:37;;;;;;;13.93;5.82;;;;;;;;;;5021489;28;20466;-57
2023/10/09 11:15:34;;;;;;;11.90;5.63;;;;;;;;;;5017590;28;20905;-57
2023/10/09 11:18:16;;;;;;;12.18;5.25;;;;;;;;;;5013516;28;20500;-57
2023/10/09 11:20:53;;;;;;;11.00;5.20;;;;;;;;;;5017290;28;20411;-57
2023/10/09 11:23:28;;;;;;;12.10;5.30;;;;;;;;;;5015553;28;20757;-56
2023/10/09 11:26:20;;;;;;;13.18;4.97;;;;;;;;;;5013233;28;20933;-57
2023/10/09 11:28:52;;;;;;;12.38;5.28;;;;;;;;;;5010917;28;20391;-57
2023/10/09 11:31:22;;;;;;;11.50;4.97;;;;;;;;;;5011236;28;20416;-57
2023/10/09 11:33:51;;;;;;;12.95;5.78;;;;;;;;;;5001999;28;20415;-57
2023/10/09 11:36:16;;;;;;;11.50;5.20;;;;;;;;;;5011997;28;20851;-57
2023/10/09 11:38:45;;;;;;;11.05;4.93;;;;;;;;;;5020189;28;20886;-57
2023/10/09 11:41:22;;;;;;;14.07;5.93;;;;;;;;;;5010085;28;20831;-57
2023/10/09 11:43:57;;;;;;;11.90;5.03;;;;;;;;;;5011084;28;20460;-57
2023/10/09 11:46:48;;;;;;;12.73;5.60;;;;;;;;;;5019522;28;20396;-57
2023/10/09 11:49:34;;;;;;;10.60;5.25;;;;;;;;;;5019261;28;20873;-57
2023/10/09 11:54:38;;;;;;;10.95;5.65;;;;;;;;;;5015270;28;20426;-57
2023/10/09 11:57:04;;;;;;;10.20;4.80;;;;;;;;;;5012412;28;20401;-57
2023/10/09 11:59:39;;;;;;;11.57;5.00;;;;;;;;;;5022017;28;20391;-57
2023/10/09 12:02:04;;;;;;;11.80;5.25;;;;;;;;;;5017330;28;20407;-57
2023/10/09 12:04:30;;;;;;;12.07;5.10;;;;;;;;;;5015716;28;20456;-57
2023/10/09 12:07:06;;;;;;;12.03;5.80;;;;;;;;;;5013638;28;20440;-56
2023/10/09 12:09:34;;;;;;;12.77;5.57;;;;;;;;;;5013238;28;20754;-58
2023/10/09 12:12:00;;;;;;;14.13;5.00;;;;;;;;;;5010279;28;20464;-57
2023/10/09 12:14:26;;;;;;;12.13;5.23;;;;;;;;;;5017992;28;20396;-57
2023/10/09 12:16:52;;;;;;;10.93;4.68;;;;;;;;;;5018641;28;20517;-57
2023/10/09 12:19:18;;;;;;;11.63;5.20;;;;;;;;;;5015931;28;20432;-57
2023/10/09 12:21:43;;;;;;;11.15;4.45;;;;;;;;;;5013659;28;20423;-57
2023/10/09 12:24:11;;;;;;;11.80;4.83;;;;;;;;;;5020201;28;20914;-57
2023/10/09 12:26:39;;;;;;;10.75;4.95;;;;;;;;;;5019244;28;20453;-57
2023/10/09 12:29:10;;;;;;;11.77;4.93;;;;;;;;;;5015674;28;20490;-57
2023/10/09 12:31:35;;;;;;;11.20;4.57;;;;;;;;;;5012565;28;20415;-57
2023/10/09 12:34:01;;;;;;;12.93;4.83;;;;;;;;;;5020586;28;20399;-57
2023/10/09 12:36:26;;;;;;;9.67;4.27;;;;;;;;;;5014475;28;22008;-57
2023/10/09 12:38:54;;;;;;;11.97;4.37;;;;;;;;;;5012919;28;20927;-57
2023/10/09 12:41:25;;;;;;;9.93;4.57;;;;;;;;;;5024716;28;20439;-57
2023/10/09 12:43:51;;;;;;;10.70;4.40;;;;;;;;;;5021938;28;20407;-57
2023/10/09 12:46:22;;;;;;;10.65;4.22;;;;;;;;;;5016001;28;20504;-57
2023/10/09 12:48:48;;;;;;;11.35;4.55;;;;;;;;;;5016313;28;20399;-57
2023/10/09 12:51:16;;;;;;;12.07;4.93;;;;;;;;;;5016029;28;20411;-57
2023/10/09 12:53:42;;;;;;;11.18;4.30;;;;;;;;;;5019455;28;20494;-58
2023/10/09 12:56:07;;;;;;;11.93;4.60;;;;;;;;;;5022682;28;20488;-57
2023/10/09 12:58:37;;;;;;;9.63;4.17;;;;;;;;;;5016584;28;20411;-57
2023/10/09 13:01:09;;;;;;;13.15;4.30;;;;;;;;;;5015798;28;20467;-57
2023/10/09 13:03:38;;;;;;;10.68;4.13;;;;;;;;;;5017906;28;20407;-56
2023/10/09 13:06:07;;;;;;;11.10;4.75;;;;;;;;;;5017971;28;20474;-57
2023/10/09 13:08:35;;;;;;;11.48;4.50;;;;;;;;;;5023909;28;20901;-57
2023/10/09 13:11:04;;;;;;;8.90;4.18;;;;;;;;;;5017090;28;20415;-57
2023/10/09 13:13:39;;;;;;;10.00;4.28;;;;;;;;;;5020573;28;20399;-57
2023/10/09 13:16:06;;;;;;;10.32;4.22;;;;;;;;;;5023600;28;20420;-56
2023/10/09 13:18:31;;;;;;;10.90;4.13;;;;;;;;;;5016074;28;20404;-57
2023/10/09 13:20:57;;;;;;;8.60;3.97;;;;;;;;;;5016545;28;20432;-57
2023/10/09 13:23:27;;;;;;;12.43;4.40;;;;;;;;;;5023679;28;20438;-57
2023/10/09 13:25:53;;;;;;;10.82;4.40;;;;;;;;;;5016181;28;20419;-57
2023/10/09 13:28:20;;;;;;;9.13;4.03;;;;;;;;;;5016307;28;20408;-57
2023/10/09 13:30:49;;;;;;;10.80;4.20;;;;;;;;;;5015819;28;20437;-57
2023/10/09 13:33:16;;;;;;;11.02;4.20;;;;;;;;;;5011632;28;20679;-57
2023/10/09 13:35:50;;;;;;;9.95;4.07;;;;;;;;;;4999772;28;20397;-57
2023/10/09 13:38:16;;;;;;;12.10;4.82;;;;;;;;;;4999946;28;20405;-57
2023/10/09 13:40:42;;;;;;;12.50;4.32;;;;;;;;;;5004441;28;20472;-57
2023/10/09 13:43:13;;;;;;;9.50;4.13;;;;;;;;;;5007032;28;20901;-57
2023/10/09 13:45:40;;;;;;;12.73;4.90;;;;;;;;;;5008957;28;20888;-57
2023/10/09 13:48:05;;;;;;;10.77;4.50;;;;;;;;;;5008496;28;20423;-57
2023/10/09 13:50:42;;;;;;;10.83;4.00;;;;;;;;;;5010472;28;20422;-58
2023/10/09 13:53:10;;;;;;;11.77;4.05;;;;;;;;;;5006774;28;20412;-57
2023/10/09 13:55:43;;;;;;;10.23;3.90;;;;;;;;;;5004858;28;20391;-58
2023/10/09 13:58:13;;;;;;;11.90;4.28;;;;;;;;;;5006793;28;20412;-58
2023/10/09 14:00:42;;;;;;;12.10;4.65;;;;;;;;;;5000145;28;20415;-58
2023/10/09 14:03:13;;;;;;;12.60;4.35;;;;;;;;;;5003110;28;20413;-57
2023/10/09 14:05:51;;;;;;;10.43;4.47;;;;;;;;;;5009087;28;20412;-58
2023/10/09 14:08:17;;;;;;;11.63;4.38;;;;;;;;;;5012726;28;20399;-58
2023/10/09 14:10:48;;;;;;;10.60;4.17;;;;;;;;;;5006759;28;20490;-58
2023/10/09 14:13:13;;;;;;;13.65;4.75;;;;;;;;;;5007934;28;20442;-58
2023/10/09 14:15:41;;;;;;;14.80;4.37;;;;;;;;;;5007443;28;20407;-58
2023/10/09 14:18:08;;;;;;;10.90;4.83;;;;;;;;;;5004174;28;20775;-58
2023/10/09 14:20:34;;;;;;;11.52;4.53;;;;;;;;;;5001001;28;20559;-58
2023/10/09 14:23:06;;;;;;;11.77;4.50;;;;;;;;;;5000413;28;20408;-58
2023/10/09 14:25:33;;;;;;;10.02;3.90;;;;;;;;;;5003980;28;21317;-58
2023/10/09 14:27:58;;;;;;;11.10;4.30;;;;;;;;;;5007193;28;20431;-58
2023/10/09 14:30:30;;;;;;;16.13;4.83;;;;;;;;;;5006645;28;20400;-58
2023/10/09 14:32:56;;;;;;;12.38;4.88;;;;;;;;;;5011236;28;20459;-58
2023/10/09 14:35:26;;;;;;;10.85;4.05;;;;;;;;;;5006304;28;20395;-59
2023/10/09 14:37:53;;;;;;;12.23;4.35;;;;;;;;;;5007247;28;20891;-58
2023/10/09 14:40:29;;;;;;;11.73;4.80;;;;;;;;;;5005974;28;20412;-58
2023/10/09 14:42:54;;;;;;;13.52;4.80;;;;;;;;;;4998787;28;20827;-58
2023/10/09 14:45:21;;;;;;;14.33;4.53;;;;;;;;;;4998137;28;20506;-58
2023/10/09 14:47:46;;;;;;;12.40;4.22;;;;;;;;;;5001826;28;20512;-58
2023/10/09 14:50:13;;;;;;;10.13;3.97;;;;;;;;;;5006577;28;20897;-57
2023/10/09 14:52:38;;;;;;;11.70;4.55;;;;;;;;;;5006363;28;20399;-58
2023/10/09 14:55:05;;;;;;;13.07;4.20;;;;;;;;;;5006457;28;20412;-58
2023/10/09 14:57:33;;;;;;;12.23;4.40;;;;;;;;;;5007582;28;20443;-58
2023/10/09 14:59:59;;;;;;;11.02;4.45;;;;;;;;;;5006734;28;21037;-57
2023/10/09 15:02:24;;;;;;;12.95;4.15;;;;;;;;;;5005983;28;20409;-57
2023/10/09 15:04:49;;;;;;;11.67;4.27;;;;;;;;;;4999758;28;20434;-58
2023/10/09 15:07:15;;;;;;;14.47;4.33;;;;;;;;;;4997906;28;20933;-58
2023/10/09 15:09:41;;;;;;;12.57;4.30;;;;;;;;;;5000075;28;20409;-58
2023/10/09 15:12:06;;;;;;;12.00;4.10;;;;;;;;;;5005293;28;20420;-57
2023/10/09 15:14:32;;;;;;;12.60;4.55;;;;;;;;;;5005718;28;20408;-58
2023/10/09 15:16:57;;;;;;;11.02;4.30;;;;;;;;;;5004612;28;20518;-58
2023/10/09 15:19:29;;;;;;;10.57;4.50;;;;;;;;;;5005990;28;21151;-57
2023/10/09 15:21:56;;;;;;;9.10;4.00;;;;;;;;;;5007086;28;20421;-57
2023/10/09 15:24:22;;;;;;;11.82;4.63;;;;;;;;;;5012091;28;20385;-58
2023/10/09 15:26:52;;;;;;;14.10;4.57;;;;;;;;;;5009229;28;20457;-57
2023/10/09 15:29:19;;;;;;;11.98;4.72;;;;;;;;;;4998371;28;20407;-58
2023/10/09 15:31:46;;;;;;;13.45;4.70;;;;;;;;;;5002390;28;20460;-57
2023/10/09 15:34:12;;;;;;;10.50;4.53;;;;;;;;;;5003033;28;20439;-57
2023/10/09 15:36:38;;;;;;;11.83;4.53;;;;;;;;;;5005920;28;20855;-57
2023/10/09 15:39:07;;;;;;;12.00;4.80;;;;;;;;;;5006555;28;20421;-57
2023/10/09 15:41:34;;;;;;;13.05;5.10;;;;;;;;;;5014341;28;20498;-57
2023/10/09 15:44:01;;;;;;;11.83;4.50;;;;;;;;;;5006443;28;20849;-57
2023/10/09 15:46:26;;;;;;;12.68;4.60;;;;;;;;;;5006011;28;20417;-57
2023/10/09 15:48:53;;;;;;;13.03;4.80;;;;;;;;;;5001790;28;20451;-58
2023/10/09 15:51:18;;;;;;;12.07;4.73;;;;;;;;;;4997748;28;20486;-58
2023/10/09 15:53:44;;;;;;;10.90;4.40;;;;;;;;;;4999632;28;20415;-58
2023/10/09 15:56:11;;;;;;;14.90;5.10;;;;;;;;;;5002742;28;20991;-57
2023/10/09 15:58:42;;;;;;;13.88;4.50;;;;;;;;;;5006816;28;20399;-57
2023/10/09 16:01:07;;;;;;;11.65;4.75;;;;;;;;;;5006037;28;20610;-58
2023/10/09 16:03:33;;;;;;;11.63;4.78;;;;;;;;;;5003356;28;20458;-58
2023/10/09 16:05:59;;;;;;;10.90;4.17;;;;;;;;;;5006801;28;20414;-57
2023/10/09 16:08:26;;;;;;;12.73;4.77;;;;;;;;;;5003647;28;20808;-57
2023/10/09 16:10:51;;;;;;;13.70;4.60;;;;;;;;;;5003847;28;20396;-58